Time;durP1;ratioP1;P1;durP2;ratioP2;P2;SDS_P1;SDS_P2;PMS_P1;PMS_P2;Temp;Humidity;BMP_temperature;BMP_pressure;BME280_temperature;BME280_humidity;BME280_pressure;Samples;Min_cycle;Max_cycle;Signal;HPM_P1;HPM_P2
2023/10/09 00:01:17;;;;;;;2.08;1.98;;;;;;;;;;4996046;28;20366;-20
2023/10/09 00:03:53;;;;;;;1.75;1.65;;;;;;;;;;4995763;28;20065;-25
2023/10/09 00:06:37;;;;;;;1.90;1.80;;;;;;;;;;4995426;28;20046;-25
2023/10/09 00:11:57;;;;;;;2.03;1.83;;;;;;;;;;4995433;28;20117;-22
2023/10/09 00:14:24;;;;;;;2.10;2.00;;;;;;;;;;4995490;28;20026;-24
2023/10/09 00:16:56;;;;;;;2.40;2.22;;;;;;;;;;4995493;28;20488;-20
2023/10/09 00:19:31;;;;;;;2.15;2.05;;;;;;;;;;4995708;28;20097;-23
2023/10/09 00:21:58;;;;;;;2.00;1.90;;;;;;;;;;4995610;28;20037;-27
2023/10/09 00:24:25;;;;;;;2.13;2.03;;;;;;;;;;4995380;28;20065;-22
2023/10/09 00:26:52;;;;;;;2.38;2.28;;;;;;;;;;4995654;28;20076;-24
2023/10/09 00:29:28;;;;;;;2.17;2.08;;;;;;;;;;4995539;28;20034;-22
2023/10/09 00:31:55;;;;;;;2.20;2.10;;;;;;;;;;4995114;28;20030;-25
2023/10/09 00:34:22;;;;;;;1.80;1.70;;;;;;;;;;4995526;28;20346;-23
2023/10/09 00:36:52;;;;;;;2.22;2.00;;;;;;;;;;4995227;28;20489;-22
2023/10/09 00:42:07;;;;;;;2.10;2.00;;;;;;;;;;4995418;28;20041;-21
2023/10/09 00:44:40;;;;;;;2.20;2.00;;;;;;;;;;4995704;28;20358;-24
2023/10/09 00:47:33;;;;;;;2.00;1.90;;;;;;;;;;4995185;28;20030;-21
2023/10/09 00:50:01;;;;;;;2.47;2.33;;;;;;;;;;4995179;28;20026;-24
2023/10/09 00:52:39;;;;;;;2.10;2.00;;;;;;;;;;4995152;28;20042;-24
2023/10/09 00:55:13;;;;;;;1.88;1.77;;;;;;;;;;4995340;28;20343;-22
2023/10/09 00:57:40;;;;;;;2.75;2.55;;;;;;;;;;4995052;28;20041;-22
2023/10/09 01:00:23;;;;;;;2.45;2.35;;;;;;;;;;4997728;28;20042;-27
2023/10/09 01:03:09;;;;;;;2.42;2.33;;;;;;;;;;4998995;28;20065;-25
2023/10/09 01:05:36;;;;;;;2.15;2.03;;;;;;;;;;4998947;28;20042;-24
2023/10/09 01:08:15;;;;;;;2.70;2.50;;;;;;;;;;4999198;28;20026;-27
2023/10/09 01:10:56;;;;;;;2.10;2.00;;;;;;;;;;4998787;28;20030;-22
2023/10/09 01:13:38;;;;;;;1.83;1.73;;;;;;;;;;4999053;28;20034;-25
2023/10/09 01:16:05;;;;;;;2.33;2.22;;;;;;;;;;4999027;28;20031;-23
2023/10/09 01:18:36;;;;;;;2.00;1.90;;;;;;;;;;4999001;28;20116;-23
2023/10/09 01:21:03;;;;;;;;;;;;;;;;;;4999916;28;20026;-25
2023/10/09 01:23:32;;;;;;;2.10;2.00;;;;;;;;;;4998575;28;19960;-22
2023/10/09 01:25:58;;;;;;;2.28;2.15;;;;;;;;;;4998834;28;20116;-22
2023/10/09 01:28:26;;;;;;;2.17;2.08;;;;;;;;;;4998517;28;20030;-23
2023/10/09 01:30:52;;;;;;;2.17;2.08;;;;;;;;;;4998394;28;20453;-23
2023/10/09 01:33:26;;;;;;;1.80;1.67;;;;;;;;;;4998370;28;20049;-22
2023/10/09 01:35:58;;;;;;;2.10;1.90;;;;;;;;;;4999012;28;20050;-21
2023/10/09 01:38:58;;;;;;;2.00;1.90;;;;;;;;;;4998680;28;20398;-21
2023/10/09 01:41:19;;;;;;;2.17;2.08;;;;;;;;;;4995607;28;20026;-21
2023/10/09 01:43:46;;;;;;;1.85;1.75;;;;;;;;;;4998239;28;20034;-24
2023/10/09 01:46:16;;;;;;;2.45;2.35;;;;;;;;;;4998212;28;20030;-26
2023/10/09 01:48:46;;;;;;;2.13;1.92;;;;;;;;;;4998431;28;20123;-19
2023/10/09 01:51:17;;;;;;;2.13;2.03;;;;;;;;;;4998390;28;20018;-23
2023/10/09 01:53:43;;;;;;;2.33;2.22;;;;;;;;;;4998368;28;20442;-23
2023/10/09 01:56:14;;;;;;;2.35;2.15;;;;;;;;;;4998013;28;20023;-27
2023/10/09 01:58:41;;;;;;;2.33;2.13;;;;;;;;;;4998268;28;20022;-27
2023/10/09 02:01:07;;;;;;;1.67;1.58;;;;;;;;;;4997926;28;20036;-21
2023/10/09 02:03:41;;;;;;;1.77;1.67;;;;;;;;;;4997863;28;20106;-26
2023/10/09 02:06:24;;;;;;;2.00;1.90;;;;;;;;;;4997709;28;20062;-25
2023/10/09 02:08:53;;;;;;;3.47;3.28;;;;;;;;;;4998090;28;20034;-22
2023/10/09 02:11:24;;;;;;;2.13;2.03;;;;;;;;;;4997685;28;20030;-25
2023/10/09 02:13:55;;;;;;;1.90;1.80;;;;;;;;;;4997646;28;20038;-20
2023/10/09 02:16:41;;;;;;;2.08;1.98;;;;;;;;;;4997997;28;20097;-24
2023/10/09 02:19:29;;;;;;;2.13;2.03;;;;;;;;;;4997894;28;20018;-22
2023/10/09 02:21:53;;;;;;;2.20;2.10;;;;;;;;;;4997184;28;20035;-24
2023/10/09 02:24:49;;;;;;;2.40;2.22;;;;;;;;;;4997487;28;20041;-24
2023/10/09 02:27:39;;;;;;;1.90;1.80;;;;;;;;;;4997255;28;20065;-24
2023/10/09 02:30:08;;;;;;;2.05;1.95;;;;;;;;;;4997288;28;20462;-20
2023/10/09 02:32:35;;;;;;;2.25;2.15;;;;;;;;;;4997386;28;20030;-26
2023/10/09 02:35:10;;;;;;;2.25;2.10;;;;;;;;;;4997575;28;20080;-26
2023/10/09 02:37:37;;;;;;;1.90;1.80;;;;;;;;;;4997610;28;20042;-23
2023/10/09 02:40:08;;;;;;;2.08;1.95;;;;;;;;;;4998259;28;20114;-20
2023/10/09 02:42:34;;;;;;;2.28;2.08;;;;;;;;;;4997111;28;20037;-25
2023/10/09 02:45:03;;;;;;;2.03;1.92;;;;;;;;;;4997393;28;20026;-26
2023/10/09 02:47:31;;;;;;;2.40;2.20;;;;;;;;;;4997087;28;20027;-23
2023/10/09 02:50:09;;;;;;;1.90;1.80;;;;;;;;;;4997286;28;20073;-27
2023/10/09 02:52:40;;;;;;;2.17;2.08;;;;;;;;;;4997237;28;20030;-25
2023/10/09 02:55:23;;;;;;;2.30;2.17;;;;;;;;;;4997250;28;20381;-24
2023/10/09 02:57:52;;;;;;;2.22;2.13;;;;;;;;;;4980318;28;20038;-22
2023/10/09 03:00:18;;;;;;;1.92;1.83;;;;;;;;;;4996833;28;20025;-21
2023/10/09 03:02:46;;;;;;;1.95;1.85;;;;;;;;;;4996633;28;20095;-25
2023/10/09 03:05:12;;;;;;;2.30;2.20;;;;;;;;;;4996659;28;20142;-23
2023/10/09 03:07:39;;;;;;;2.05;1.95;;;;;;;;;;4996678;28;20054;-25
2023/10/09 03:10:09;;;;;;;2.08;1.98;;;;;;;;;;4996930;28;20030;-22
2023/10/09 03:12:35;;;;;;;2.17;2.08;;;;;;;;;;4996785;28;20038;-23
2023/10/09 03:15:02;;;;;;;2.42;2.28;;;;;;;;;;4996578;28;20026;-20
2023/10/09 03:17:29;;;;;;;2.20;2.10;;;;;;;;;;4996525;28;20457;-24
2023/10/09 03:19:55;;;;;;;2.60;2.40;;;;;;;;;;4996451;28;20023;-24
2023/10/09 03:22:21;;;;;;;2.42;2.22;;;;;;;;;;4996029;28;20454;-21
2023/10/09 03:24:49;;;;;;;2.15;2.05;;;;;;;;;;4996432;28;20026;-24
2023/10/09 03:27:15;;;;;;;2.20;2.10;;;;;;;;;;4997084;28;20067;-21
2023/10/09 03:29:46;;;;;;;2.70;2.55;;;;;;;;;;4996330;28;20439;-22
2023/10/09 03:32:13;;;;;;;2.42;2.33;;;;;;;;;;4996123;28;20030;-29
2023/10/09 03:34:39;;;;;;;2.30;2.20;;;;;;;;;;4979066;28;20525;-21
2023/10/09 03:37:06;;;;;;;2.08;1.98;;;;;;;;;;4996130;28;20026;-21
2023/10/09 03:39:40;;;;;;;2.53;2.33;;;;;;;;;;4996426;28;20353;-24
2023/10/09 03:42:11;;;;;;;2.50;2.30;;;;;;;;;;4996249;28;20049;-23
2023/10/09 03:44:41;;;;;;;2.00;1.90;;;;;;;;;;4996052;28;20446;-23
2023/10/09 03:47:11;;;;;;;2.22;2.13;;;;;;;;;;4995893;28;20045;-30
2023/10/09 03:49:39;;;;;;;2.33;2.22;;;;;;;;;;4995889;28;20022;-24
2023/10/09 03:52:09;;;;;;;2.15;2.05;;;;;;;;;;4995982;28;20442;-28
2023/10/09 03:54:35;;;;;;;1.93;1.83;;;;;;;;;;4996157;28;20034;-25
2023/10/09 03:57:02;;;;;;;2.10;2.00;;;;;;;;;;4995794;28;20026;-23
2023/10/09 03:59:30;;;;;;;2.40;2.30;;;;;;;;;;4995788;28;20030;-23
2023/10/09 04:01:58;;;;;;;2.92;2.08;;;;;;;;;;4995874;28;20358;-26
2023/10/09 04:04:24;;;;;;;2.33;2.22;;;;;;;;;;4995403;28;20073;-24
2023/10/09 04:06:53;;;;;;;2.22;2.10;;;;;;;;;;4995587;28;20026;-24
2023/10/09 04:12:30;;;;;;;1.98;1.88;;;;;;;;;;4995677;28;20038;-20
2023/10/09 04:14:43;;;;;;;;;;;;;;;;;;4987890;28;20100;-23
2023/10/09 04:20:30;;;;;;;2.05;1.85;;;;;;;;;;4995437;28;20045;-25
2023/10/09 04:22:39;;;;;;;2.50;2.40;;;;;;;;;;4995105;28;20450;-25
2023/10/09 04:25:07;;;;;;;;;;;;;;;;;;4995691;28;20018;-24
2023/10/09 04:27:37;;;;;;;2.25;2.05;;;;;;;;;;4995721;28;19906;-25
2023/10/09 04:30:07;;;;;;;2.75;2.53;;;;;;;;;;4995452;28;20065;-24
2023/10/09 04:32:34;;;;;;;2.30;2.10;;;;;;;;;;4995370;28;20472;-23
2023/10/09 04:37:52;;;;;;;2.63;2.42;;;;;;;;;;4995064;28;20038;-25
2023/10/09 04:43:07;;;;;;;2.35;2.22;;;;;;;;;;4995084;28;20097;-25
2023/10/09 04:48:32;;;;;;;5.85;2.40;;;;;;;;;;4995036;28;20393;-28
2023/10/09 04:53:50;;;;;;;2.33;2.20;;;;;;;;;;4994912;28;20042;-27
2023/10/09 04:56:16;;;;;;;3.00;2.47;;;;;;;;;;4994906;28;20469;-31
2023/10/09 04:58:44;;;;;;;4.15;2.40;;;;;;;;;;4977801;28;20366;-29
2023/10/09 05:01:21;;;;;;;3.95;2.40;;;;;;;;;;4994773;28;20029;-29
2023/10/09 05:03:56;;;;;;;2.38;2.17;;;;;;;;;;4994906;28;20061;-23
2023/10/09 05:09:13;;;;;;;5.40;3.38;;;;;;;;;;4995057;28;20496;-25
2023/10/09 05:14:19;;;;;;;3.30;3.00;;;;;;;;;;4995055;28;20030;-23
2023/10/09 05:16:54;;;;;;;3.25;2.20;;;;;;;;;;4994360;28;20030;-25
2023/10/09 05:19:42;;;;;;;4.03;2.55;;;;;;;;;;4977009;28;20035;-29
2023/10/09 05:22:29;;;;;;;2.50;2.30;;;;;;;;;;4994329;28;20045;-27
2023/10/09 05:24:56;;;;;;;3.88;2.53;;;;;;;;;;4977024;28;20484;-25
2023/10/09 05:30:26;;;;;;;2.60;2.40;;;;;;;;;;4994617;28;20373;-25
2023/10/09 05:32:58;;;;;;;2.92;2.53;;;;;;;;;;4994988;28;20315;-24
2023/10/09 05:38:25;;;;;;;2.75;2.55;;;;;;;;;;4971586;28;20109;-23
2023/10/09 05:41:04;;;;;;;2.97;2.67;;;;;;;;;;4994403;28;20465;-24
2023/10/09 05:46:15;;;;;;;2.63;2.42;;;;;;;;;;4996909;28;20520;-25
2023/10/09 05:51:41;;;;;;;4.78;2.60;;;;;;;;;;4998135;28;20034;-27
2023/10/09 05:54:23;;;;;;;4.30;2.83;;;;;;;;;;4997524;28;20034;-24
2023/10/09 06:04:54;;;;;;;2.63;2.42;;;;;;;;;;4884240;26;20053;-28
2023/10/09 06:07:40;;;;;;;3.20;2.90;;;;;;;;;;5017375;28;20029;-28
2023/10/09 06:10:20;;;;;;;2.80;2.35;;;;;;;;;;5017224;28;20033;-30
2023/10/09 06:13:03;;;;;;;3.15;2.88;;;;;;;;;;5016952;28;20036;-27
2023/10/09 06:15:51;;;;;;;8.80;2.92;;;;;;;;;;5017189;28;20030;-35
2023/10/09 06:18:32;;;;;;;3.92;2.65;;;;;;;;;;5016899;28;20449;-29
2023/10/09 06:26:24;;;;;;;3.22;2.80;;;;;;;;;;5016805;28;20037;-30
2023/10/09 06:29:13;;;;;;;2.80;2.60;;;;;;;;;;5001031;28;20037;-30
2023/10/09 06:34:32;;;;;;;4.53;2.80;;;;;;;;;;5016629;28;20116;-27
2023/10/09 06:37:05;;;;;;;5.75;2.80;;;;;;;;;;5016566;28;20030;-26
2023/10/09 06:42:33;;;;;;;3.45;2.90;;;;;;;;;;5016692;28;20048;-30
2023/10/09 06:45:08;;;;;;;3.13;2.38;;;;;;;;;;5016669;28;20471;-30
2023/10/09 06:47:41;;;;;;;4.22;3.25;;;;;;;;;;5016890;28;20033;-28
2023/10/09 06:50:55;;;;;;;3.17;2.88;;;;;;;;;;5017143;28;20037;-27
2023/10/09 06:53:20;;;;;;;6.30;2.97;;;;;;;;;;5014076;28;20092;-27
2023/10/09 06:55:48;;;;;;;4.32;2.53;;;;;;;;;;5015923;28;20033;-27
2023/10/09 06:58:28;;;;;;;5.15;2.83;;;;;;;;;;4998439;28;20034;-29
2023/10/09 07:03:29;;;;;;;4.90;3.10;;;;;;;;;;5017497;28;20070;-30
2023/10/09 07:16:57;;;;;;;4.07;3.40;;;;;;;;;;5016399;28;20061;-28
2023/10/09 07:22:23;;;;;;;3.00;2.78;;;;;;;;;;5015921;28;20045;-28
2023/10/09 07:30:57;;;;;;;5.68;4.13;;;;;;;;;;5016980;28;20068;-28
2023/10/09 07:33:03;;;;;;;5.95;3.38;;;;;;;;;;5005117;28;20132;-28
2023/10/09 07:38:11;;;;;;;12.00;5.07;;;;;;;;;;5015705;28;20052;-32
2023/10/09 07:40:56;;;;;;;10.07;3.03;;;;;;;;;;5015617;28;20018;-28
2023/10/09 07:43:38;;;;;;;8.40;2.95;;;;;;;;;;5015792;28;20112;-28
2023/10/09 07:51:33;;;;;;;3.63;2.53;;;;;;;;;;5002459;28;20069;-30
2023/10/09 07:54:09;;;;;;;6.47;3.25;;;;;;;;;;4998336;28;20605;-30
2023/10/09 07:56:41;;;;;;;7.85;3.20;;;;;;;;;;5015727;28;20088;-28
2023/10/09 07:59:13;;;;;;;4.65;2.97;;;;;;;;;;5015625;28;20395;-28
2023/10/09 08:01:52;;;;;;;3.65;3.35;;;;;;;;;;5015751;28;20092;-28
2023/10/09 08:05:06;;;;;;;4.15;3.40;;;;;;;;;;5015172;28;20056;-27
2023/10/09 08:07:09;;;;;;;5.10;3.13;;;;;;;;;;5005475;28;20464;-28
2023/10/09 08:09:48;;;;;;;4.50;3.15;;;;;;;;;;5014996;28;20444;-30
2023/10/09 08:12:39;;;;;;;3.00;2.80;;;;;;;;;;5015303;28;20041;-27
2023/10/09 08:16:17;;;;;;;6.80;3.45;;;;;;;;;;5015906;28;20518;-26
2023/10/09 08:18:18;;;;;;;5.32;3.05;;;;;;;;;;5002485;28;20034;-29
2023/10/09 08:21:19;;;;;;;7.28;3.80;;;;;;;;;;5014844;28;20117;-28
2023/10/09 08:23:49;;;;;;;3.60;2.85;;;;;;;;;;5014476;28;20037;-27
2023/10/09 08:26:47;;;;;;;12.68;5.32;;;;;;;;;;4997410;28;20475;-26
2023/10/09 08:29:17;;;;;;;4.70;2.90;;;;;;;;;;4998198;28;20100;-29
2023/10/09 08:31:47;;;;;;;5.45;2.83;;;;;;;;;;4997229;28;20026;-27
2023/10/09 08:34:26;;;;;;;5.97;3.50;;;;;;;;;;5015096;28;20464;-30
2023/10/09 08:36:52;;;;;;;11.10;3.45;;;;;;;;;;4982780;28;20457;-28
2023/10/09 08:39:25;;;;;;;7.30;3.15;;;;;;;;;;5014857;28;20025;-28
2023/10/09 08:41:58;;;;;;;3.78;3.15;;;;;;;;;;5014618;28;20186;-28
2023/10/09 08:44:26;;;;;;;8.65;2.95;;;;;;;;;;5014666;28;20026;-29
2023/10/09 08:46:54;;;;;;;8.30;3.72;;;;;;;;;;5015109;28;20022;-31
2023/10/09 08:49:23;;;;;;;3.85;3.38;;;;;;;;;;5014624;28;20022;-26
2023/10/09 08:51:52;;;;;;;4.82;3.15;;;;;;;;;;5014944;28;20050;-30
2023/10/09 08:54:18;;;;;;;8.90;3.25;;;;;;;;;;4997276;28;20342;-28
2023/10/09 08:56:49;;;;;;;6.00;3.97;;;;;;;;;;5014492;28;20037;-29
2023/10/09 08:59:19;;;;;;;13.43;3.80;;;;;;;;;;5015108;28;20030;-29
2023/10/09 09:01:49;;;;;;;4.10;3.03;;;;;;;;;;5014845;28;20045;-28
2023/10/09 09:04:34;;;;;;;5.20;2.90;;;;;;;;;;5014448;28;20078;-28
2023/10/09 09:07:01;;;;;;;8.68;3.83;;;;;;;;;;5014758;28;20030;-28
2023/10/09 09:09:30;;;;;;;5.25;3.67;;;;;;;;;;5014603;28;20113;-26
2023/10/09 09:11:59;;;;;;;3.70;3.40;;;;;;;;;;4997141;28;20034;-29
2023/10/09 09:14:37;;;;;;;3.50;3.30;;;;;;;;;;5014350;28;20022;-28
2023/10/09 09:17:05;;;;;;;6.22;3.42;;;;;;;;;;5014868;28;20023;-28
2023/10/09 09:19:32;;;;;;;3.80;3.40;;;;;;;;;;5014408;28;20077;-30
2023/10/09 09:21:59;;;;;;;3.92;2.90;;;;;;;;;;5018032;28;20361;-26
2023/10/09 09:29:37;;;;;;;6.28;3.15;;;;;;;;;;5018341;28;20056;-29
2023/10/09 09:32:17;;;;;;;4.03;3.60;;;;;;;;;;5018100;28;20032;-29
2023/10/09 09:34:48;;;;;;;5.65;3.45;;;;;;;;;;5017994;28;20105;-28
2023/10/09 09:37:20;;;;;;;3.90;3.45;;;;;;;;;;5017929;28;20458;-28
2023/10/09 09:39:49;;;;;;;6.20;2.90;;;;;;;;;;5018700;28;20109;-27
2023/10/09 09:42:24;;;;;;;13.50;3.78;;;;;;;;;;5017589;28;20464;-28
2023/10/09 09:44:51;;;;;;;5.30;3.25;;;;;;;;;;5018422;28;20025;-28
2023/10/09 09:47:25;;;;;;;5.25;3.22;;;;;;;;;;5017859;28;20030;-29
2023/10/09 09:49:53;;;;;;;4.55;3.95;;;;;;;;;;5000602;28;20483;-27
2023/10/09 09:52:24;;;;;;;3.63;3.28;;;;;;;;;;5017490;28;20036;-28
2023/10/09 09:54:51;;;;;;;6.05;3.25;;;;;;;;;;5017605;28;20114;-28
2023/10/09 09:57:25;;;;;;;6.95;3.22;;;;;;;;;;5017677;28;20049;-29
2023/10/09 09:59:55;;;;;;;3.55;3.25;;;;;;;;;;5017512;28;20084;-31
2023/10/09 10:02:33;;;;;;;6.45;3.33;;;;;;;;;;5017642;28;20018;-30
2023/10/09 10:04:59;;;;;;;5.95;4.32;;;;;;;;;;5017519;28;20046;-30
2023/10/09 10:07:26;;;;;;;6.63;3.63;;;;;;;;;;5017304;28;20030;-26
2023/10/09 10:09:54;;;;;;;9.90;4.15;;;;;;;;;;5017520;28;20097;-30
2023/10/09 10:12:41;;;;;;;10.43;3.25;;;;;;;;;;4999857;28;20495;-28
2023/10/09 10:15:16;;;;;;;9.65;4.20;;;;;;;;;;5017941;28;20101;-29
2023/10/09 10:18:00;;;;;;;24.23;5.75;;;;;;;;;;5017705;28;20360;-30
2023/10/09 10:20:27;;;;;;;18.63;5.15;;;;;;;;;;5017116;28;20052;-28
2023/10/09 10:23:17;;;;;;;13.93;4.50;;;;;;;;;;5016931;28;20029;-30
2023/10/09 10:25:48;;;;;;;10.35;4.03;;;;;;;;;;5017210;28;20034;-30
2023/10/09 10:28:28;;;;;;;8.95;4.00;;;;;;;;;;5017609;28;20045;-29
2023/10/09 10:30:55;;;;;;;3.28;3.08;;;;;;;;;;5016920;28;20429;-28
2023/10/09 10:33:24;;;;;;;8.85;3.92;;;;;;;;;;5017105;28;20033;-27
2023/10/09 10:35:55;;;;;;;9.35;3.88;;;;;;;;;;5016762;28;20022;-29
2023/10/09 10:38:36;;;;;;;11.02;3.45;;;;;;;;;;5017287;28;20113;-29
2023/10/09 10:41:05;;;;;;;;;;;;;;;;;;5017123;28;20030;-29
2023/10/09 10:43:47;;;;;;;12.90;4.85;;;;;;;;;;5016766;28;19905;-28
2023/10/09 10:46:24;;;;;;;5.97;4.15;;;;;;;;;;5016773;28;20061;-32
2023/10/09 10:48:59;;;;;;;14.95;3.97;;;;;;;;;;5016926;28;20034;-31
2023/10/09 10:51:34;;;;;;;4.50;3.80;;;;;;;;;;5016648;28;20034;-29
2023/10/09 10:54:28;;;;;;;5.03;3.40;;;;;;;;;;4999077;28;20032;-29
2023/10/09 10:56:48;;;;;;;6.05;3.35;;;;;;;;;;5016199;28;20036;-27
2023/10/09 10:59:22;;;;;;;3.97;3.45;;;;;;;;;;4999415;28;20080;-25
2023/10/09 11:02:13;;;;;;;7.50;3.80;;;;;;;;;;5016215;28;20053;-28
2023/10/09 11:07:09;;;;;;;5.28;4.78;;;;;;;;;;5016279;28;20037;-28
2023/10/09 11:10:27;;;;;;;4.38;3.20;;;;;;;;;;5016142;28;20141;-28
2023/10/09 11:12:45;;;;;;;6.40;4.07;;;;;;;;;;5012945;28;20042;-27
2023/10/09 11:18:07;;;;;;;5.25;3.35;;;;;;;;;;5016087;28;20084;-28
2023/10/09 11:20:38;;;;;;;3.83;3.05;;;;;;;;;;4998631;28;20113;-28
2023/10/09 11:25:50;;;;;;;4.40;3.50;;;;;;;;;;5015973;28;20026;-26
2023/10/09 11:28:29;;;;;;;7.82;4.25;;;;;;;;;;5016590;28;20034;-31
2023/10/09 11:30:56;;;;;;;3.92;3.22;;;;;;;;;;5015712;28;20044;-29
2023/10/09 11:33:24;;;;;;;4.90;3.42;;;;;;;;;;5015631;28;20080;-29
2023/10/09 11:35:57;;;;;;;5.18;3.65;;;;;;;;;;5016167;28;20042;-27
2023/10/09 11:38:25;;;;;;;5.22;3.63;;;;;;;;;;5015612;28;20025;-29
2023/10/09 11:43:36;;;;;;;8.43;4.03;;;;;;;;;;5014744;28;20083;-27
2023/10/09 11:46:12;;;;;;;11.18;3.42;;;;;;;;;;5015407;28;20033;-26
2023/10/09 11:49:13;;;;;;;14.23;3.85;;;;;;;;;;5015232;28;20475;-29
2023/10/09 11:51:34;;;;;;;5.47;3.45;;;;;;;;;;5015075;28;20034;-29
2023/10/09 11:54:00;;;;;;;4.45;3.38;;;;;;;;;;5015699;28;20033;-30
2023/10/09 11:56:27;;;;;;;4.50;3.78;;;;;;;;;;5015460;28;20026;-25
2023/10/09 11:58:54;;;;;;;16.23;4.95;;;;;;;;;;5015434;28;20160;-27
2023/10/09 12:01:21;;;;;;;4.10;3.28;;;;;;;;;;5015434;28;20364;-27
2023/10/09 12:03:49;;;;;;;6.38;3.85;;;;;;;;;;5015044;28;20045;-30
2023/10/09 12:06:18;;;;;;;4.38;3.88;;;;;;;;;;5015087;28;20025;-29
2023/10/09 12:08:48;;;;;;;5.57;3.88;;;;;;;;;;4997833;28;20037;-26
2023/10/09 12:11:22;;;;;;;9.68;3.53;;;;;;;;;;5016111;28;20030;-26
2023/10/09 12:13:57;;;;;;;6.72;3.70;;;;;;;;;;5015447;28;20097;-29
2023/10/09 12:16:27;;;;;;;9.88;3.53;;;;;;;;;;5015341;28;20018;-26
2023/10/09 12:18:57;;;;;;;11.17;3.70;;;;;;;;;;4997720;28;20467;-30
2023/10/09 12:21:24;;;;;;;4.30;3.65;;;;;;;;;;5014954;28;20096;-27
2023/10/09 12:23:50;;;;;;;8.52;3.28;;;;;;;;;;5014689;28;20030;-25
2023/10/09 12:26:16;;;;;;;12.10;4.25;;;;;;;;;;5015066;28;20026;-27
2023/10/09 12:28:46;;;;;;;9.35;3.67;;;;;;;;;;4997294;28;20122;-28
2023/10/09 12:31:15;;;;;;;7.95;3.95;;;;;;;;;;5015174;28;20040;-27
2023/10/09 12:33:42;;;;;;;10.82;4.72;;;;;;;;;;5014623;28;20091;-28
2023/10/09 12:36:20;;;;;;;10.13;3.83;;;;;;;;;;5014853;28;20026;-27
2023/10/09 12:38:50;;;;;;;4.47;3.45;;;;;;;;;;5015311;28;20441;-27
2023/10/09 12:41:25;;;;;;;9.02;3.17;;;;;;;;;;5014896;28;20022;-28
2023/10/09 12:43:52;;;;;;;7.35;3.78;;;;;;;;;;5014969;28;20037;-28
2023/10/09 12:46:22;;;;;;;11.20;3.92;;;;;;;;;;5014635;28;20026;-29
2023/10/09 12:48:49;;;;;;;5.47;4.85;;;;;;;;;;5014933;28;20431;-30
2023/10/09 12:51:16;;;;;;;9.90;4.80;;;;;;;;;;5014468;28;20073;-27
2023/10/09 12:53:45;;;;;;;9.20;5.15;;;;;;;;;;5014483;28;20493;-29
2023/10/09 12:56:12;;;;;;;13.18;5.65;;;;;;;;;;5017244;28;20522;-31
2023/10/09 12:58:52;;;;;;;9.05;4.93;;;;;;;;;;5018656;28;20030;-30
2023/10/09 13:01:21;;;;;;;14.75;3.60;;;;;;;;;;5018482;28;20034;-30
2023/10/09 13:03:50;;;;;;;9.85;5.07;;;;;;;;;;5018344;28;20050;-30
2023/10/09 13:06:23;;;;;;;5.75;4.15;;;;;;;;;;5018829;28;20026;-30
2023/10/09 13:08:51;;;;;;;8.57;4.05;;;;;;;;;;5018737;28;20057;-30
2023/10/09 13:11:18;;;;;;;7.90;4.90;;;;;;;;;;5019258;28;20030;-30
2023/10/09 13:13:50;;;;;;;7.18;4.38;;;;;;;;;;5018192;28;20120;-29
2023/10/09 13:16:23;;;;;;;7.30;4.15;;;;;;;;;;5018237;28;20115;-31
2023/10/09 13:18:50;;;;;;;4.78;3.78;;;;;;;;;;5018884;28;20357;-29
2023/10/09 13:21:17;;;;;;;8.60;3.72;;;;;;;;;;5018339;28;20050;-28
2023/10/09 13:23:46;;;;;;;6.47;4.40;;;;;;;;;;5000914;28;20032;-28
2023/10/09 13:26:19;;;;;;;4.82;3.72;;;;;;;;;;5018209;28;20034;-28
2023/10/09 13:28:49;;;;;;;14.93;4.00;;;;;;;;;;5018460;28;20029;-28
2023/10/09 13:31:16;;;;;;;4.37;3.80;;;;;;;;;;5018136;28;20026;-28
2023/10/09 13:33:43;;;;;;;10.25;3.70;;;;;;;;;;5018160;28;20253;-28
2023/10/09 13:36:26;;;;;;;6.45;3.90;;;;;;;;;;5018429;28;20165;-28
2023/10/09 13:38:53;;;;;;;4.55;4.13;;;;;;;;;;5018143;28;20045;-27
2023/10/09 13:41:19;;;;;;;7.25;3.40;;;;;;;;;;5018183;28;20129;-30
2023/10/09 13:43:45;;;;;;;7.25;3.65;;;;;;;;;;5017861;28;20052;-30
2023/10/09 13:46:12;;;;;;;5.47;3.38;;;;;;;;;;5018162;28;20036;-27
2023/10/09 13:48:41;;;;;;;4.38;3.75;;;;;;;;;;5018105;28;20429;-30
2023/10/09 13:51:17;;;;;;;10.77;3.90;;;;;;;;;;5017755;28;20022;-29
2023/10/09 13:53:46;;;;;;;8.18;4.00;;;;;;;;;;5017126;28;20208;-29
2023/10/09 13:56:20;;;;;;;6.15;3.40;;;;;;;;;;5017969;28;20097;-27
2023/10/09 13:58:50;;;;;;;5.80;3.95;;;;;;;;;;5000428;28;20030;-31
2023/10/09 14:01:32;;;;;;;7.78;4.20;;;;;;;;;;5017519;28;20038;-25
2023/10/09 14:03:59;;;;;;;6.68;3.42;;;;;;;;;;5017509;28;20078;-27
2023/10/09 14:06:32;;;;;;;5.65;4.13;;;;;;;;;;5017075;28;20056;-26
2023/10/09 14:08:59;;;;;;;6.20;3.55;;;;;;;;;;5017799;28;20412;-26
2023/10/09 14:11:26;;;;;;;8.45;3.80;;;;;;;;;;5000042;28;20417;-28
2023/10/09 14:13:53;;;;;;;4.68;3.78;;;;;;;;;;5017336;28;20021;-30
2023/10/09 14:16:27;;;;;;;5.38;3.80;;;;;;;;;;5017614;28;20018;-30
2023/10/09 14:18:56;;;;;;;12.43;3.70;;;;;;;;;;5017325;28;20030;-28
2023/10/09 14:21:25;;;;;;;8.18;4.10;;;;;;;;;;5017762;28;20112;-28
2023/10/09 14:23:56;;;;;;;4.65;3.35;;;;;;;;;;5018020;28;20354;-32
2023/10/09 14:26:22;;;;;;;;;;;;;;;;;;5017629;28;20087;-29
2023/10/09 14:28:49;;;;;;;7.30;3.45;;;;;;;;;;5017189;28;19906;-26
2023/10/09 14:31:20;;;;;;;7.63;3.53;;;;;;;;;;5017294;28;20413;-27
2023/10/09 14:33:53;;;;;;;7.07;2.95;;;;;;;;;;5016947;28;20018;-28
2023/10/09 14:36:19;;;;;;;6.20;3.80;;;;;;;;;;4999743;28;20053;-31
2023/10/09 14:38:46;;;;;;;6.05;3.83;;;;;;;;;;5017241;28;20034;-27
2023/10/09 14:41:13;;;;;;;4.53;4.13;;;;;;;;;;5017103;28;20380;-30
2023/10/09 14:43:40;;;;;;;6.63;3.67;;;;;;;;;;5017058;28;20026;-30
2023/10/09 14:46:10;;;;;;;10.48;4.13;;;;;;;;;;5016815;28;20026;-26
2023/10/09 14:48:37;;;;;;;8.95;4.38;;;;;;;;;;5016715;28;20034;-28
2023/10/09 14:51:10;;;;;;;8.63;4.10;;;;;;;;;;4999301;28;20131;-26
2023/10/09 14:53:36;;;;;;;4.00;3.60;;;;;;;;;;5016567;28;20036;-29
2023/10/09 14:56:09;;;;;;;4.97;3.38;;;;;;;;;;5017036;28;20036;-29
2023/10/09 14:58:35;;;;;;;8.93;3.85;;;;;;;;;;5016599;28;20061;-32
2023/10/09 15:01:15;;;;;;;6.50;3.75;;;;;;;;;;5016684;28;20049;-28
2023/10/09 15:03:42;;;;;;;4.82;4.15;;;;;;;;;;5016241;28;20421;-28
2023/10/09 15:06:10;;;;;;;11.90;5.03;;;;;;;;;;5016267;28;20040;-27
2023/10/09 15:08:37;;;;;;;4.70;4.18;;;;;;;;;;5016229;28;20025;-27
2023/10/09 15:11:05;;;;;;;6.38;4.43;;;;;;;;;;5016182;28;20036;-29
2023/10/09 15:13:31;;;;;;;6.63;3.88;;;;;;;;;;5016084;28;20064;-30
2023/10/09 15:15:58;;;;;;;5.07;3.53;;;;;;;;;;5016234;28;20040;-28
2023/10/09 15:18:25;;;;;;;5.28;3.60;;;;;;;;;;5015206;28;20326;-29
2023/10/09 15:20:51;;;;;;;4.00;3.65;;;;;;;;;;5016094;28;20030;-30
2023/10/09 15:23:19;;;;;;;5.97;3.97;;;;;;;;;;4998952;28;20022;-30
2023/10/09 15:25:49;;;;;;;8.50;3.67;;;;;;;;;;5016553;28;20018;-28
2023/10/09 15:28:17;;;;;;;13.82;5.78;;;;;;;;;;5016330;28;20033;-29
2023/10/09 15:30:43;;;;;;;7.55;3.65;;;;;;;;;;5015851;28;20464;-30
2023/10/09 15:33:10;;;;;;;6.75;4.03;;;;;;;;;;5015898;28;20033;-30
2023/10/09 15:35:37;;;;;;;10.65;3.53;;;;;;;;;;5015799;28;20030;-27
2023/10/09 15:38:04;;;;;;;4.68;3.60;;;;;;;;;;5015735;28;20026;-30
2023/10/09 15:40:34;;;;;;;5.45;3.70;;;;;;;;;;5016079;28;20030;-31
2023/10/09 15:43:01;;;;;;;11.98;4.28;;;;;;;;;;5016132;28;20045;-30
2023/10/09 15:45:29;;;;;;;6.30;3.72;;;;;;;;;;5015626;28;20464;-29
2023/10/09 15:47:56;;;;;;;6.88;4.07;;;;;;;;;;5015835;28;20460;-30
2023/10/09 15:50:25;;;;;;;4.13;3.63;;;;;;;;;;5015522;28;20037;-32
2023/10/09 15:52:55;;;;;;;9.35;4.22;;;;;;;;;;5015808;28;20042;-28
2023/10/09 15:55:24;;;;;;;6.50;4.47;;;;;;;;;;5015766;28;20018;-30
2023/10/09 15:57:58;;;;;;;13.48;3.88;;;;;;;;;;5016538;28;20033;-28
2023/10/09 16:00:28;;;;;;;10.48;4.15;;;;;;;;;;5015559;28;20032;-28
2023/10/09 16:02:55;;;;;;;5.07;3.10;;;;;;;;;;5015575;28;20361;-33
2023/10/09 16:05:25;;;;;;;6.20;3.67;;;;;;;;;;5015751;28;20099;-29
2023/10/09 16:07:52;;;;;;;4.30;3.47;;;;;;;;;;5015839;28;20498;-29
2023/10/09 16:10:20;;;;;;;7.20;3.33;;;;;;;;;;5015430;28;20034;-27
2023/10/09 16:12:46;;;;;;;5.35;3.50;;;;;;;;;;5015472;28;20026;-28
2023/10/09 16:15:17;;;;;;;7.75;3.88;;;;;;;;;;5015582;28;20030;-25
2023/10/09 16:17:43;;;;;;;6.45;5.13;;;;;;;;;;5015412;28;20046;-29
2023/10/09 16:20:21;;;;;;;7.13;3.78;;;;;;;;;;5015340;28;20037;-29
2023/10/09 16:22:49;;;;;;;14.45;4.05;;;;;;;;;;5015260;28;20034;-28
2023/10/09 16:25:17;;;;;;;4.88;4.20;;;;;;;;;;5015064;28;20088;-29
2023/10/09 16:27:47;;;;;;;9.48;3.28;;;;;;;;;;5015136;28;20030;-28
2023/10/09 16:30:21;;;;;;;3.67;3.17;;;;;;;;;;5014738;28;20100;-29
2023/10/09 16:32:47;;;;;;;9.73;4.65;;;;;;;;;;5015020;28;20105;-29
2023/10/09 16:35:13;;;;;;;5.38;3.47;;;;;;;;;;4997533;28;20037;-29
2023/10/09 16:37:40;;;;;;;4.30;3.83;;;;;;;;;;5014867;28;20030;-27
2023/10/09 16:40:13;;;;;;;7.75;4.43;;;;;;;;;;5014778;28;20041;-29
2023/10/09 16:42:40;;;;;;;9.93;3.85;;;;;;;;;;5014603;28;20033;-28
2023/10/09 16:45:15;;;;;;;7.47;3.40;;;;;;;;;;4997368;28;20120;-27
2023/10/09 16:47:42;;;;;;;4.30;3.88;;;;;;;;;;5014705;28;20106;-27
2023/10/09 16:50:13;;;;;;;8.70;4.85;;;;;;;;;;5014994;28;20054;-30
2023/10/09 16:52:39;;;;;;;4.78;3.78;;;;;;;;;;5014489;28;20038;-31
2023/10/09 16:55:08;;;;;;;10.90;4.18;;;;;;;;;;5015499;28;20032;-29